Search for airport 
image banner adimage banner adimage banner ad
image banner ad

22PA - Uniontown Hospital

Located in Uniontown, United States

ICAO - 22PA, IATA -

Data provided by Airmate  

General information

Coordinates: N39°54'3" W79°44'41"
Elevation is 1115 feet MSL.
Magnetic variation is -09° East
View others Airports in Pennsylvania

Operational data

Special qualification required
Current time UTC:
Current local time:
METAR: KMGW 182353Z 02003KT 10SM CLR 23/07 A3028 RMK AO2 SLP248 T02330067 10272 20233 57002
TAF: KMGW 182320Z 1900/1924 VRB03KT P6SM SCT250
View NOTAMs / SUP AIP / TFR affecting this airport [VIEW]
Communications frequencies: [VIEW]

Runways:

Airport contact information

Address: Uniontown United States

Satellite view of 22PA